createdAt,value
2017-08-29T00:00:25.187Z,0.00
2017-08-29T00:01:25.247Z,0.00
2017-08-29T00:02:20.218Z,0.00
2017-08-29T00:03:15.347Z,0.00
2017-08-29T00:04:15.226Z,0.00
2017-08-29T00:05:10.417Z,0.00
2017-08-29T00:06:05.479Z,0.00
2017-08-29T00:07:06.367Z,0.00
2017-08-29T00:08:06.405Z,0.00
2017-08-29T00:09:06.604Z,0.00
2017-08-29T00:10:06.572Z,0.00
2017-08-29T00:11:07.540Z,0.00
2017-08-29T00:12:08.483Z,0.00
2017-08-29T00:13:02.584Z,0.00
2017-08-29T00:14:02.670Z,0.00
2017-08-29T00:14:57.694Z,0.00
2017-08-29T00:15:52.741Z,0.00
2017-08-29T00:16:52.813Z,0.00
2017-08-29T00:17:47.869Z,0.00
2017-08-29T00:18:42.812Z,0.00
2017-08-29T00:19:42.850Z,0.00
2017-08-29T00:20:37.889Z,0.00
2017-08-29T00:21:33.042Z,0.00
2017-08-29T00:22:33.905Z,0.00
2017-08-29T00:23:34.011Z,0.00
2017-08-29T00:24:34.037Z,0.00
2017-08-29T00:25:29.038Z,0.00
2017-08-29T00:26:23.026Z,0.00
2017-08-29T00:27:23.181Z,0.00
2017-08-29T00:28:18.233Z,0.00
2017-08-29T00:29:18.244Z,0.00
2017-08-29T00:30:18.345Z,0.00
2017-08-29T00:31:18.322Z,0.00
2017-08-29T00:32:18.338Z,0.00
2017-08-29T00:33:18.438Z,0.00
2017-08-29T00:34:12.454Z,0.00
2017-08-29T00:35:12.478Z,0.00
2017-08-29T00:36:07.492Z,0.00
2017-08-29T00:37:07.469Z,0.00
2017-08-29T00:38:01.618Z,0.00
2017-08-29T00:39:01.565Z,0.00
2017-08-29T00:39:56.638Z,0.00
2017-08-29T00:40:51.684Z,0.00
2017-08-29T00:41:51.777Z,0.00
2017-08-29T00:42:46.775Z,0.00
2017-08-29T00:43:41.760Z,0.00
2017-08-29T00:44:42.895Z,0.00
2017-08-29T00:45:42.763Z,0.00
2017-08-29T00:46:42.802Z,0.00
2017-08-29T00:47:37.927Z,0.00
2017-08-29T00:48:32.001Z,0.00
2017-08-29T00:49:31.972Z,0.00
2017-08-29T00:50:27.038Z,0.00
2017-08-29T00:51:27.019Z,0.00
2017-08-29T00:52:21.197Z,0.00
2017-08-29T00:53:21.200Z,0.00
2017-08-29T00:54:16.147Z,0.00
2017-08-29T00:55:11.201Z,0.00
2017-08-29T00:56:11.300Z,0.00
2017-08-29T00:57:06.268Z,0.00
2017-08-29T00:58:01.304Z,0.00
2017-08-29T00:59:07.335Z,0.00
2017-08-29T01:00:01.368Z,0.00
2017-08-29T01:01:02.375Z,0.00
2017-08-29T01:02:02.434Z,0.00
2017-08-29T01:03:02.509Z,0.00
2017-08-29T01:03:57.455Z,0.00
2017-08-29T01:04:57.469Z,0.00
2017-08-29T01:05:57.650Z,0.00
2017-08-29T01:06:57.578Z,0.00
2017-08-29T01:07:57.762Z,0.00
2017-08-29T01:08:57.660Z,0.00
2017-08-29T01:09:57.596Z,0.00
2017-08-29T01:10:57.697Z,0.00
2017-08-29T01:11:52.763Z,0.00
2017-08-29T01:12:47.749Z,0.00
2017-08-29T01:13:48.760Z,0.00
2017-08-29T01:14:48.858Z,0.00
2017-08-29T01:15:48.919Z,0.00
2017-08-29T01:16:43.944Z,0.00
2017-08-29T01:17:37.953Z,0.00
2017-08-29T01:18:37.945Z,0.00
2017-08-29T01:19:33.017Z,0.00
2017-08-29T01:20:33.042Z,0.00
2017-08-29T01:21:33.241Z,0.00
2017-08-29T01:22:33.205Z,0.00
2017-08-29T01:23:27.182Z,0.00
2017-08-29T01:24:27.243Z,0.00
2017-08-29T01:25:22.306Z,0.00
2017-08-29T01:26:22.253Z,0.00
2017-08-29T01:27:16.385Z,0.00
2017-08-29T01:28:16.389Z,0.00
2017-08-29T01:29:11.355Z,0.00
2017-08-29T01:30:06.399Z,0.00
2017-08-29T01:31:07.454Z,0.00
2017-08-29T01:32:07.423Z,0.00
2017-08-29T01:33:02.439Z,0.00
2017-08-29T01:34:02.568Z,0.00
2017-08-29T01:34:56.613Z,0.00
2017-08-29T01:35:56.596Z,0.00
2017-08-29T01:36:51.843Z,0.00
2017-08-29T01:37:51.822Z,0.00
2017-08-29T01:38:51.803Z,0.00
2017-08-29T01:39:51.845Z,0.00
2017-08-29T01:40:45.986Z,0.00
2017-08-29T01:41:45.896Z,0.00
2017-08-29T01:42:40.943Z,0.00
2017-08-29T01:43:36.020Z,0.00
2017-08-29T01:44:35.993Z,0.00
2017-08-29T01:45:31.046Z,0.00
2017-08-29T01:46:26.063Z,0.00
2017-08-29T01:47:26.117Z,0.00
2017-08-29T01:48:21.077Z,0.00
2017-08-29T01:49:16.265Z,0.00
2017-08-29T01:50:17.273Z,0.00
2017-08-29T01:51:18.215Z,0.00
2017-08-29T01:52:13.278Z,0.00
2017-08-29T01:53:07.393Z,0.00
2017-08-29T01:54:07.474Z,0.00
2017-08-29T01:55:07.448Z,0.00
2017-08-29T01:56:02.499Z,0.00
2017-08-29T01:56:56.543Z,0.00
2017-08-29T01:57:56.438Z,0.00
2017-08-29T01:58:51.565Z,0.00
2017-08-29T01:59:46.502Z,0.00
2017-08-29T02:00:47.547Z,0.00
2017-08-29T02:01:47.719Z,0.00
2017-08-29T02:02:47.664Z,0.00
2017-08-29T02:03:42.727Z,0.00
2017-08-29T02:04:36.903Z,0.00
2017-08-29T02:05:37.871Z,0.00
2017-08-29T02:06:37.864Z,0.00
2017-08-29T02:07:37.838Z,0.00
2017-08-29T02:08:32.945Z,0.00
2017-08-29T02:09:26.943Z,0.00
2017-08-29T02:10:26.942Z,0.00
2017-08-29T02:11:26.851Z,0.00
2017-08-29T02:12:27.071Z,0.00
2017-08-29T02:13:22.093Z,0.00
2017-08-29T02:14:17.052Z,0.00
2017-08-29T02:15:18.165Z,0.00
2017-08-29T02:16:18.215Z,0.00
2017-08-29T02:17:18.221Z,0.00
2017-08-29T02:18:13.339Z,0.00
2017-08-29T02:19:07.287Z,0.00
2017-08-29T02:20:07.299Z,0.00
2017-08-29T02:21:02.325Z,0.00
2017-08-29T02:22:08.456Z,0.00
2017-08-29T02:23:03.412Z,0.00
2017-08-29T02:23:57.393Z,0.00
2017-08-29T02:24:57.462Z,0.00
2017-08-29T02:25:57.487Z,0.00
2017-08-29T02:26:52.554Z,0.00
2017-08-29T02:27:46.589Z,0.00
2017-08-29T02:28:46.593Z,0.00
2017-08-29T02:29:41.666Z,0.00
2017-08-29T02:30:36.629Z,0.00
2017-08-29T02:31:42.672Z,0.00
2017-08-29T02:32:36.770Z,0.00
2017-08-29T02:33:37.758Z,0.00
2017-08-29T02:34:37.797Z,0.00
2017-08-29T02:35:37.818Z,0.00
2017-08-29T02:36:32.853Z,0.00
2017-08-29T02:37:27.197Z,0.00
2017-08-29T02:38:27.021Z,0.00
2017-08-29T02:39:21.928Z,0.00
2017-08-29T02:40:22.036Z,0.00
2017-08-29T02:41:16.015Z,0.00
2017-08-29T02:42:16.105Z,0.00
2017-08-29T02:43:16.095Z,0.00
2017-08-29T02:44:16.142Z,0.00
2017-08-29T02:45:11.265Z,0.00
2017-08-29T02:46:11.356Z,0.00
2017-08-29T02:47:05.320Z,0.00
2017-08-29T02:48:05.334Z,0.00
2017-08-29T02:49:00.487Z,0.00
2017-08-29T02:49:55.527Z,0.00
2017-08-29T02:50:55.384Z,0.00
2017-08-29T02:51:50.415Z,0.00
2017-08-29T02:52:50.545Z,0.00
2017-08-29T02:53:50.500Z,0.00
2017-08-29T02:54:50.632Z,0.00
2017-08-29T02:55:50.599Z,0.00
2017-08-29T02:56:50.679Z,0.00
2017-08-29T02:57:44.782Z,0.00
2017-08-29T02:58:45.771Z,0.00
2017-08-29T02:59:45.655Z,0.00
2017-08-29T03:00:45.779Z,0.00
2017-08-29T03:01:40.886Z,0.00
2017-08-29T03:02:34.836Z,0.00
2017-08-29T03:03:34.907Z,0.00
2017-08-29T03:04:29.993Z,0.00
2017-08-29T03:05:24.991Z,0.00
2017-08-29T03:06:26.119Z,0.00
2017-08-29T03:07:27.076Z,0.00
2017-08-29T03:08:27.125Z,0.00
2017-08-29T03:09:28.079Z,0.00
2017-08-29T03:10:29.120Z,0.00
2017-08-29T03:11:23.104Z,0.00
2017-08-29T03:12:24.186Z,0.00
2017-08-29T03:13:24.313Z,0.00
2017-08-29T03:14:18.767Z,0.00
2017-08-29T03:15:19.356Z,0.00
2017-08-29T03:16:12.774Z,0.00
2017-08-29T03:17:13.166Z,0.00
2017-08-29T03:18:08.064Z,0.00
2017-08-29T03:19:03.080Z,0.00
2017-08-29T03:20:03.406Z,0.00
2017-08-29T03:20:58.485Z,0.00
2017-08-29T03:21:57.962Z,0.00
2017-08-29T03:22:58.145Z,0.00
2017-08-29T03:23:58.818Z,0.00
2017-08-29T03:24:58.550Z,0.00
2017-08-29T03:25:58.661Z,0.00
2017-08-29T03:26:58.705Z,0.00
2017-08-29T03:28:04.635Z,0.00
2017-08-29T03:29:04.803Z,0.00
2017-08-29T03:30:04.801Z,0.00
2017-08-29T03:30:59.935Z,0.00
2017-08-29T03:32:00.888Z,0.00
2017-08-29T03:33:00.900Z,0.00
2017-08-29T03:34:01.035Z,0.00
2017-08-29T03:35:00.974Z,0.00
2017-08-29T03:36:01.963Z,0.00
2017-08-29T03:37:02.994Z,0.00
2017-08-29T03:37:57.082Z,0.00
2017-08-29T03:38:57.038Z,0.00
2017-08-29T03:39:52.145Z,0.00
2017-08-29T03:40:47.220Z,0.00
2017-08-29T03:41:47.364Z,0.00
2017-08-29T03:42:42.278Z,0.00
2017-08-29T03:43:37.382Z,0.00
2017-08-29T03:44:37.407Z,0.00
2017-08-29T03:45:32.411Z,0.00
2017-08-29T03:46:27.572Z,0.00
2017-08-29T03:47:28.411Z,0.00
2017-08-29T03:48:29.487Z,0.00
2017-08-29T03:49:24.609Z,0.00
2017-08-29T03:50:18.542Z,0.00
2017-08-29T03:51:19.649Z,0.00
2017-08-29T03:52:14.690Z,0.00
2017-08-29T03:53:08.691Z,0.00
2017-08-29T03:54:08.763Z,0.00
2017-08-29T03:55:03.782Z,0.00
2017-08-29T03:56:03.895Z,0.00
2017-08-29T03:56:57.838Z,0.00
2017-08-29T03:57:57.949Z,0.00
2017-08-29T03:58:52.858Z,0.00
2017-08-29T03:59:48.013Z,0.00
2017-08-29T04:00:48.106Z,0.00
2017-08-29T04:01:43.050Z,0.00
2017-08-29T04:02:38.119Z,0.00
2017-08-29T04:03:38.187Z,0.00
2017-08-29T04:04:33.092Z,0.00
2017-08-29T04:05:28.239Z,0.00
2017-08-29T04:06:29.248Z,0.00
2017-08-29T04:07:29.229Z,0.00
2017-08-29T04:08:29.202Z,0.00
2017-08-29T04:09:24.325Z,0.00
2017-08-29T04:10:24.235Z,0.00
2017-08-29T04:11:24.450Z,0.00
2017-08-29T04:12:18.498Z,0.00
2017-08-29T04:13:18.623Z,0.00
2017-08-29T04:14:13.494Z,0.00
2017-08-29T04:15:13.484Z,0.00
2017-08-29T04:16:13.589Z,0.00
2017-08-29T04:17:13.630Z,0.00
2017-08-29T04:18:13.600Z,0.00
2017-08-29T04:19:13.668Z,0.00
2017-08-29T04:20:07.660Z,0.00
2017-08-29T04:21:07.838Z,0.00
2017-08-29T04:22:02.794Z,0.00
2017-08-29T04:22:57.817Z,0.00
2017-08-29T04:23:57.741Z,0.00
2017-08-29T04:24:52.812Z,0.00
2017-08-29T04:25:47.986Z,0.00
2017-08-29T04:26:41.966Z,0.00
2017-08-29T04:27:48.069Z,0.00
2017-08-29T04:28:41.993Z,0.00
2017-08-29T04:29:43.070Z,0.00
2017-08-29T04:30:38.055Z,0.00
2017-08-29T04:31:38.155Z,0.00
2017-08-29T04:32:38.305Z,0.00
2017-08-29T04:33:38.105Z,0.00
2017-08-29T04:34:38.243Z,0.00
2017-08-29T04:35:38.209Z,0.00
2017-08-29T04:36:38.203Z,0.00
2017-08-29T04:37:38.409Z,0.01
2017-08-29T04:38:38.425Z,0.01
2017-08-29T04:39:38.461Z,0.01
2017-08-29T04:40:44.561Z,0.01
2017-08-29T04:41:39.464Z,0.01
2017-08-29T04:42:33.519Z,0.01
2017-08-29T04:43:33.434Z,0.01
2017-08-29T04:44:28.732Z,0.01
2017-08-29T04:45:23.516Z,0.01
2017-08-29T04:46:23.671Z,0.01
2017-08-29T04:47:18.682Z,0.01
2017-08-29T04:48:13.750Z,0.01
2017-08-29T04:49:07.774Z,0.01
2017-08-29T04:50:13.887Z,0.02
2017-08-29T04:51:07.912Z,0.02
2017-08-29T04:52:08.805Z,0.02
2017-08-29T04:53:03.845Z,0.02
2017-08-29T04:54:03.907Z,0.02
2017-08-29T04:55:03.995Z,0.02
2017-08-29T04:56:03.939Z,0.02
2017-08-29T04:57:04.135Z,0.02
2017-08-29T04:58:04.144Z,0.02
2017-08-29T04:59:10.133Z,0.02
2017-08-29T05:00:10.077Z,0.02
2017-08-29T05:01:11.200Z,0.03
2017-08-29T05:02:12.169Z,0.03
2017-08-29T05:03:13.230Z,0.03
2017-08-29T05:04:13.315Z,0.03
2017-08-29T05:05:13.268Z,0.03
2017-08-29T05:06:07.309Z,0.03
2017-08-29T05:07:07.335Z,0.03
2017-08-29T05:08:02.428Z,0.04
2017-08-29T05:08:57.445Z,0.04
2017-08-29T05:09:51.574Z,0.04
2017-08-29T05:10:52.511Z,0.04
2017-08-29T05:11:53.462Z,0.04
2017-08-29T05:12:48.576Z,0.04
2017-08-29T05:13:48.534Z,0.04
2017-08-29T05:14:48.632Z,0.04
2017-08-29T05:15:48.767Z,0.05
2017-08-29T05:16:48.781Z,0.05
2017-08-29T05:17:48.663Z,0.05
2017-08-29T05:18:48.802Z,0.05
2017-08-29T05:19:48.905Z,0.05
2017-08-29T05:20:48.817Z,0.05
2017-08-29T05:21:48.892Z,0.05
2017-08-29T05:22:48.954Z,0.05
2017-08-29T05:23:48.962Z,0.06
2017-08-29T05:24:49.031Z,0.06
2017-08-29T05:25:49.049Z,0.06
2017-08-29T05:26:49.108Z,0.06
2017-08-29T05:27:49.129Z,0.06
2017-08-29T05:28:49.218Z,0.06
2017-08-29T05:29:49.380Z,0.07
2017-08-29T05:30:49.245Z,0.07
2017-08-29T05:31:49.263Z,0.07
2017-08-29T05:32:49.318Z,0.07
2017-08-29T05:33:49.381Z,0.07
2017-08-29T05:34:49.386Z,0.08
2017-08-29T05:35:49.733Z,0.09
2017-08-29T05:36:55.459Z,0.09
2017-08-29T05:37:50.521Z,0.09
2017-08-29T05:38:44.493Z,0.09
2017-08-29T05:39:44.478Z,0.10
2017-08-29T05:40:39.579Z,0.10
2017-08-29T05:41:34.758Z,0.10
2017-08-29T05:42:34.750Z,0.11
2017-08-29T05:43:29.686Z,0.11
2017-08-29T05:44:24.803Z,0.11
2017-08-29T05:45:18.747Z,0.11
2017-08-29T05:46:24.817Z,0.11
2017-08-29T05:47:18.922Z,0.11
2017-08-29T05:48:24.869Z,0.11
2017-08-29T05:49:18.989Z,0.11
2017-08-29T05:50:20.111Z,0.12
2017-08-29T05:51:15.005Z,0.12
2017-08-29T05:52:15.093Z,0.12
2017-08-29T05:53:15.141Z,0.13
2017-08-29T05:54:15.200Z,0.14
2017-08-29T05:55:09.165Z,0.14
2017-08-29T05:55:58.215Z,0.14
2017-08-29T05:56:52.278Z,0.14
2017-08-29T05:57:53.405Z,0.15
2017-08-29T05:58:42.813Z,0.16
2017-08-29T05:59:42.427Z,0.16
2017-08-29T06:00:30.457Z,0.16
2017-08-29T06:01:30.405Z,0.16
2017-08-29T06:02:18.531Z,0.17
2017-08-29T06:03:13.480Z,0.18
2017-08-29T06:04:03.023Z,0.18
2017-08-29T06:04:57.619Z,0.19
2017-08-29T06:05:52.662Z,0.19
2017-08-29T06:06:47.839Z,0.19
2017-08-29T06:07:42.734Z,0.20
2017-08-29T06:08:32.010Z,0.20
2017-08-29T06:09:25.990Z,0.20
2017-08-29T06:10:21.020Z,0.20
2017-08-29T06:11:14.986Z,0.20
2017-08-29T06:12:10.179Z,0.21
2017-08-29T06:13:10.058Z,0.22
2017-08-29T06:14:05.322Z,0.22
2017-08-29T06:15:05.190Z,0.22
2017-08-29T06:15:59.105Z,0.22
2017-08-29T06:16:53.221Z,0.22
2017-08-29T06:17:47.266Z,0.22
2017-08-29T06:18:42.370Z,0.22
2017-08-29T06:19:31.381Z,0.23
2017-08-29T06:20:20.430Z,0.23
2017-08-29T06:21:14.394Z,0.23
2017-08-29T06:22:08.588Z,0.24
2017-08-29T06:23:02.682Z,0.24
2017-08-29T06:24:02.685Z,0.24
2017-08-29T06:24:51.631Z,0.24
2017-08-29T06:25:45.897Z,0.25
2017-08-29T06:26:45.803Z,0.25
2017-08-29T06:27:39.860Z,0.26
2017-08-29T06:28:39.911Z,0.26
2017-08-29T06:29:33.842Z,0.26
2017-08-29T06:30:27.978Z,0.26
2017-08-29T06:31:22.974Z,0.27
2017-08-29T06:32:18.116Z,0.27
2017-08-29T06:33:12.148Z,0.27
2017-08-29T06:34:06.163Z,0.27
2017-08-29T06:34:55.253Z,0.27
2017-08-29T06:35:49.271Z,0.28
2017-08-29T06:36:43.294Z,0.28
2017-08-29T06:37:37.417Z,0.28
2017-08-29T06:38:37.468Z,0.28
2017-08-29T06:39:37.504Z,0.29
2017-08-29T06:40:32.484Z,0.29
2017-08-29T06:41:27.636Z,0.30
2017-08-29T06:42:16.617Z,0.30
2017-08-29T06:43:05.623Z,0.30
2017-08-29T06:43:59.719Z,0.30
2017-08-29T06:44:53.929Z,0.31
2017-08-29T06:45:48.918Z,0.31
2017-08-29T06:46:43.975Z,0.32
2017-08-29T06:47:45.083Z,0.32
2017-08-29T06:48:39.949Z,0.32
2017-08-29T06:49:35.144Z,0.32
2017-08-29T06:50:29.058Z,0.32
2017-08-29T06:51:23.137Z,0.33
2017-08-29T06:52:24.141Z,0.34
2017-08-29T06:53:12.361Z,0.34
2017-08-29T06:54:06.372Z,0.34
2017-08-29T06:54:55.314Z,0.34
2017-08-29T06:55:43.458Z,0.34
2017-08-29T06:56:31.427Z,0.34
2017-08-29T06:57:20.643Z,0.34
2017-08-29T06:58:14.728Z,0.33
2017-08-29T06:59:14.655Z,0.33
2017-08-29T07:00:09.830Z,0.33
2017-08-29T07:00:58.797Z,0.34
2017-08-29T07:01:53.886Z,0.35
2017-08-29T07:02:47.906Z,0.36
2017-08-29T07:03:41.976Z,0.36
2017-08-29T07:04:37.057Z,0.36
2017-08-29T07:05:37.151Z,0.36
2017-08-29T07:06:31.124Z,0.37
2017-08-29T07:07:26.102Z,0.38
2017-08-29T07:08:21.306Z,0.38
2017-08-29T07:09:21.323Z,0.39
2017-08-29T07:10:21.358Z,0.39
2017-08-29T07:11:09.365Z,0.39
2017-08-29T07:11:57.474Z,0.40
2017-08-29T07:12:51.515Z,0.40
2017-08-29T07:13:46.598Z,0.40
2017-08-29T07:14:40.699Z,0.40
2017-08-29T07:15:34.743Z,0.40
2017-08-29T07:16:28.830Z,0.40
2017-08-29T07:17:23.904Z,0.41
2017-08-29T07:18:18.990Z,0.42
2017-08-29T07:19:19.068Z,0.42
2017-08-29T07:20:08.498Z,0.41
2017-08-29T07:21:02.132Z,0.41
2017-08-29T07:21:56.244Z,0.41
2017-08-29T07:22:50.288Z,0.40
2017-08-29T07:23:44.356Z,0.41
2017-08-29T07:24:39.343Z,0.41
2017-08-29T07:25:34.752Z,0.41
2017-08-29T07:26:23.567Z,0.42
2017-08-29T07:27:12.592Z,0.43
2017-08-29T07:28:00.641Z,0.43
2017-08-29T07:28:48.672Z,0.44
2017-08-29T07:29:36.845Z,0.44
2017-08-29T07:30:24.959Z,0.44
2017-08-29T07:31:25.040Z,0.44
2017-08-29T07:32:20.192Z,0.45
2017-08-29T07:33:14.185Z,0.45
2017-08-29T07:34:09.372Z,0.46
2017-08-29T07:35:03.264Z,0.46
2017-08-29T07:35:58.253Z,0.46
2017-08-29T07:36:58.434Z,0.47
2017-08-29T07:37:52.463Z,0.47
2017-08-29T07:38:47.671Z,0.46
2017-08-29T07:39:41.567Z,0.45
2017-08-29T07:40:35.651Z,0.45
2017-08-29T07:41:29.742Z,0.45
2017-08-29T07:42:24.108Z,0.45
2017-08-29T07:43:24.089Z,0.45
2017-08-29T07:44:18.035Z,0.47
2017-08-29T07:45:06.986Z,0.47
2017-08-29T07:46:02.187Z,0.49
2017-08-29T07:47:03.159Z,0.50
2017-08-29T07:47:52.356Z,0.50
2017-08-29T07:48:41.383Z,0.50
2017-08-29T07:49:41.520Z,0.50
2017-08-29T07:50:36.551Z,0.50
2017-08-29T07:51:30.721Z,0.50
2017-08-29T07:52:31.649Z,0.50
2017-08-29T07:53:26.840Z,0.50
2017-08-29T07:54:20.843Z,0.51
2017-08-29T07:55:15.059Z,0.51
2017-08-29T07:56:09.127Z,0.52
2017-08-29T07:56:57.182Z,0.52
2017-08-29T07:57:51.270Z,0.51
2017-08-29T07:58:51.286Z,0.50
2017-08-29T07:59:45.392Z,0.51
2017-08-29T08:00:39.403Z,0.50
2017-08-29T08:01:27.613Z,0.51
2017-08-29T08:02:16.644Z,0.52
2017-08-29T08:03:04.759Z,0.52
2017-08-29T08:03:58.656Z,0.52
2017-08-29T08:04:46.898Z,0.53
2017-08-29T08:05:34.982Z,0.53
2017-08-29T08:06:23.889Z,0.53
2017-08-29T08:07:13.107Z,0.53
2017-08-29T08:08:02.170Z,0.53
2017-08-29T08:09:02.362Z,0.52
2017-08-29T08:09:57.360Z,0.52
2017-08-29T08:10:57.505Z,0.53
2017-08-29T08:11:46.583Z,0.53
2017-08-29T08:12:40.657Z,0.53
2017-08-29T08:13:35.877Z,0.54
2017-08-29T08:14:24.774Z,0.55
2017-08-29T08:15:19.852Z,0.55
2017-08-29T08:16:13.910Z,0.56
2017-08-29T08:17:13.952Z,0.55
2017-08-29T08:18:03.030Z,0.55
2017-08-29T08:18:57.070Z,0.55
2017-08-29T08:19:52.388Z,0.55
2017-08-29T08:20:41.279Z,0.56
2017-08-29T08:21:35.397Z,0.56
2017-08-29T08:22:30.391Z,0.56
2017-08-29T08:23:25.507Z,0.56
2017-08-29T08:24:19.569Z,0.57
2017-08-29T08:25:13.872Z,0.57
2017-08-29T08:26:02.791Z,0.58
2017-08-29T08:26:57.780Z,0.58
2017-08-29T08:27:52.920Z,0.58
2017-08-29T08:28:41.075Z,0.59
2017-08-29T08:29:36.148Z,0.59
2017-08-29T08:30:31.073Z,0.59
2017-08-29T08:31:20.172Z,0.59
2017-08-29T08:32:08.374Z,0.60
2017-08-29T08:33:02.359Z,0.59
2017-08-29T08:34:03.555Z,0.60
2017-08-29T08:34:58.539Z,0.60
2017-08-29T08:35:53.606Z,0.61
2017-08-29T08:36:47.644Z,0.61
2017-08-29T08:37:42.825Z,0.61
2017-08-29T08:38:36.910Z,0.62
2017-08-29T08:39:31.952Z,0.61
2017-08-29T08:40:26.144Z,0.62
2017-08-29T08:41:15.238Z,0.62
2017-08-29T08:42:09.151Z,0.62
2017-08-29T08:43:04.347Z,0.62
2017-08-29T08:43:58.396Z,0.63
2017-08-29T08:44:52.446Z,0.62
2017-08-29T08:45:47.571Z,0.62
2017-08-29T08:46:41.654Z,0.62
2017-08-29T08:47:35.671Z,0.62
2017-08-29T08:48:30.743Z,0.63
2017-08-29T08:49:19.808Z,0.63
2017-08-29T08:50:07.928Z,0.63
2017-08-29T08:51:01.933Z,0.64
2017-08-29T08:51:50.110Z,0.64
2017-08-29T08:52:44.252Z,0.64
2017-08-29T08:53:38.237Z,0.64
2017-08-29T08:54:33.254Z,0.64
2017-08-29T08:55:27.427Z,0.64
2017-08-29T08:56:16.490Z,0.65
2017-08-29T08:57:04.659Z,0.65
2017-08-29T08:57:58.703Z,0.65
2017-08-29T08:58:46.792Z,0.66
2017-08-29T08:59:35.815Z,0.66
2017-08-29T09:00:24.872Z,0.66
2017-08-29T09:01:19.057Z,0.66
2017-08-29T09:02:13.246Z,0.66
2017-08-29T09:03:07.197Z,0.65
2017-08-29T09:04:01.225Z,0.65
2017-08-29T09:04:56.332Z,0.65
2017-08-29T09:05:50.294Z,0.65
2017-08-29T09:06:39.368Z,0.65
2017-08-29T09:07:28.585Z,0.65
2017-08-29T09:08:23.678Z,0.65
2017-08-29T09:09:23.792Z,0.65
2017-08-29T09:10:17.787Z,0.66
2017-08-29T09:11:11.976Z,0.66
2017-08-29T09:12:06.977Z,0.66
2017-08-29T09:13:02.067Z,0.65
2017-08-29T09:13:56.033Z,0.65
2017-08-29T09:14:45.209Z,0.66
2017-08-29T09:15:34.172Z,0.67
2017-08-29T09:16:28.417Z,0.68
2017-08-29T09:17:23.468Z,0.68
2017-08-29T09:18:23.574Z,0.68
2017-08-29T09:19:12.714Z,0.68
2017-08-29T09:20:06.660Z,0.69
2017-08-29T09:20:55.746Z,0.69
2017-08-29T09:21:49.899Z,0.69
2017-08-29T09:22:51.001Z,0.69
2017-08-29T09:23:46.255Z,0.69
2017-08-29T09:24:34.193Z,0.70
2017-08-29T09:25:29.145Z,0.71
2017-08-29T09:26:29.261Z,0.72
2017-08-29T09:27:24.350Z,0.71
2017-08-29T09:28:18.385Z,0.71
2017-08-29T09:29:12.850Z,0.71
2017-08-29T09:30:07.577Z,0.71
2017-08-29T09:31:01.618Z,0.71
2017-08-29T09:31:55.768Z,0.71
2017-08-29T09:32:56.967Z,0.71
2017-08-29T09:33:51.901Z,0.70
2017-08-29T09:34:46.027Z,0.70
2017-08-29T09:35:41.045Z,0.70
2017-08-29T09:36:30.253Z,0.71
2017-08-29T09:37:24.275Z,0.72
2017-08-29T09:38:18.450Z,0.72
2017-08-29T09:39:07.494Z,0.73
2017-08-29T09:39:56.871Z,0.73
2017-08-29T09:40:50.623Z,0.72
2017-08-29T09:41:45.708Z,0.72
2017-08-29T09:42:39.797Z,0.72
2017-08-29T09:43:29.104Z,0.71
2017-08-29T09:44:22.993Z,0.70
2017-08-29T09:45:11.266Z,0.70
2017-08-29T09:45:59.119Z,0.69
2017-08-29T09:46:53.112Z,0.68
2017-08-29T09:47:47.339Z,0.68
2017-08-29T09:48:47.350Z,0.69
2017-08-29T09:49:41.534Z,0.71
2017-08-29T09:50:36.636Z,0.72
2017-08-29T09:51:31.622Z,0.71
2017-08-29T09:52:25.732Z,0.65
2017-08-29T09:53:14.922Z,0.66
2017-08-29T09:54:02.836Z,0.68
2017-08-29T09:54:57.876Z,0.70
2017-08-29T09:55:47.078Z,0.71
2017-08-29T09:56:41.124Z,0.72
2017-08-29T09:57:35.244Z,0.75
2017-08-29T09:58:24.302Z,0.75
2017-08-29T09:59:18.327Z,0.74
2017-08-29T10:00:12.434Z,0.74
2017-08-29T10:01:00.789Z,0.74
2017-08-29T10:01:54.611Z,0.75
2017-08-29T10:02:48.565Z,0.74
2017-08-29T10:03:37.704Z,0.75
2017-08-29T10:04:31.816Z,0.74
2017-08-29T10:05:25.904Z,0.74
2017-08-29T10:06:15.061Z,0.74
2017-08-29T10:07:04.112Z,0.73
2017-08-29T10:07:59.144Z,0.74
2017-08-29T10:08:59.240Z,0.75
2017-08-29T10:10:05.333Z,0.75
2017-08-29T10:11:06.464Z,0.74
2017-08-29T10:12:00.534Z,0.75
2017-08-29T10:13:00.648Z,0.75
2017-08-29T10:14:01.684Z,0.74
2017-08-29T10:14:50.778Z,0.74
2017-08-29T10:15:44.897Z,0.76
2017-08-29T10:16:38.922Z,0.76
2017-08-29T10:17:27.988Z,0.75
2017-08-29T10:18:22.110Z,0.72
2017-08-29T10:19:17.221Z,0.73
2017-08-29T10:20:06.285Z,0.74
2017-08-29T10:20:55.383Z,0.76
2017-08-29T10:21:49.355Z,0.77
2017-08-29T10:22:43.548Z,0.78
2017-08-29T10:23:32.640Z,0.78
2017-08-29T10:24:21.760Z,0.74
2017-08-29T10:25:10.798Z,0.77
2017-08-29T10:26:04.794Z,0.78
2017-08-29T10:27:04.884Z,0.77
2017-08-29T10:28:00.076Z,0.75
2017-08-29T10:28:49.217Z,0.76
2017-08-29T10:29:37.340Z,0.75
2017-08-29T10:30:26.425Z,0.75
2017-08-29T10:31:15.414Z,0.77
2017-08-29T10:32:09.546Z,0.78
2017-08-29T10:33:03.725Z,0.77
2017-08-29T10:33:52.705Z,0.77
2017-08-29T10:34:41.768Z,0.77
2017-08-29T10:35:29.872Z,0.79
2017-08-29T10:36:17.843Z,0.79
2017-08-29T10:37:12.095Z,0.75
2017-08-29T10:38:06.085Z,0.74
2017-08-29T10:38:55.260Z,0.74
2017-08-29T10:39:44.233Z,0.70
2017-08-29T10:40:39.382Z,0.70
2017-08-29T10:41:39.511Z,0.69
2017-08-29T10:42:33.591Z,0.71
2017-08-29T10:43:22.656Z,0.71
2017-08-29T10:44:11.732Z,0.68
2017-08-29T10:45:05.803Z,0.64
2017-08-29T10:45:53.914Z,0.63
2017-08-29T10:46:47.979Z,0.61
2017-08-29T10:47:37.028Z,0.63
2017-08-29T10:48:31.556Z,0.63
2017-08-29T10:49:31.151Z,0.65
2017-08-29T10:50:25.228Z,0.70
2017-08-29T10:51:26.321Z,0.73
2017-08-29T10:52:26.579Z,0.75
2017-08-29T10:53:26.569Z,0.74
2017-08-29T10:54:20.890Z,0.74
2017-08-29T10:55:14.700Z,0.75
2017-08-29T10:56:03.756Z,0.72
2017-08-29T10:56:57.888Z,0.73
2017-08-29T10:57:52.928Z,0.71
2017-08-29T10:58:54.063Z,0.70
2017-08-29T10:59:49.392Z,0.71
2017-08-29T11:00:43.219Z,0.74
2017-08-29T11:01:37.438Z,0.76
2017-08-29T11:02:26.394Z,0.76
2017-08-29T11:03:15.501Z,0.78
2017-08-29T11:04:15.568Z,0.78
2017-08-29T11:05:10.105Z,0.75
2017-08-29T11:06:03.645Z,0.75
2017-08-29T11:06:57.894Z,0.52
2017-08-29T11:07:46.842Z,0.74
2017-08-29T11:08:36.069Z,0.74
2017-08-29T11:09:31.046Z,0.74
2017-08-29T11:10:25.310Z,0.73
2017-08-29T11:11:14.098Z,0.75
2017-08-29T11:12:08.286Z,0.76
2017-08-29T11:13:08.404Z,0.76
2017-08-29T11:14:02.522Z,0.76
2017-08-29T11:15:02.611Z,0.76
2017-08-29T11:16:02.659Z,0.76
2017-08-29T11:16:56.654Z,0.75
2017-08-29T11:17:50.824Z,0.73
2017-08-29T11:18:44.988Z,0.74
2017-08-29T11:19:34.113Z,0.75
2017-08-29T11:20:27.990Z,0.73
2017-08-29T11:21:16.222Z,0.71
2017-08-29T11:22:10.233Z,0.71
2017-08-29T11:23:04.321Z,0.22
2017-08-29T11:24:04.371Z,0.71
2017-08-29T11:24:59.483Z,0.72
2017-08-29T11:25:47.546Z,0.71
2017-08-29T11:26:42.592Z,0.22
2017-08-29T11:27:36.815Z,0.26
2017-08-29T11:28:31.815Z,0.72
2017-08-29T11:29:25.788Z,0.72
2017-08-29T11:30:19.884Z,0.22
2017-08-29T11:31:14.997Z,0.72
2017-08-29T11:32:03.279Z,0.54
2017-08-29T11:32:57.230Z,0.73
2017-08-29T11:33:51.178Z,0.22
2017-08-29T11:34:39.343Z,0.68
2017-08-29T11:35:28.489Z,0.70
2017-08-29T11:36:22.490Z,0.65
2017-08-29T11:37:16.872Z,0.71
2017-08-29T11:38:10.639Z,0.71
2017-08-29T11:38:59.838Z,0.70
2017-08-29T11:39:53.784Z,0.22
2017-08-29T11:40:41.949Z,0.72
2017-08-29T11:41:36.981Z,0.71
2017-08-29T11:42:31.401Z,0.73
2017-08-29T11:43:25.222Z,0.73
2017-08-29T11:44:13.348Z,0.21
2017-08-29T11:45:08.301Z,0.74
2017-08-29T11:46:03.584Z,0.74
2017-08-29T11:46:57.616Z,0.73
2017-08-29T11:47:46.685Z,0.21
2017-08-29T11:48:46.657Z,0.72
2017-08-29T11:49:41.754Z,0.70
2017-08-29T11:50:41.857Z,0.71
2017-08-29T11:51:42.991Z,0.71
2017-08-29T11:52:31.992Z,0.72
2017-08-29T11:53:26.075Z,0.73
2017-08-29T11:54:20.253Z,0.72
2017-08-29T11:55:14.345Z,0.72
2017-08-29T11:56:09.403Z,0.71
2017-08-29T11:57:03.561Z,0.72
2017-08-29T11:57:58.558Z,0.73
2017-08-29T11:58:52.755Z,0.73
2017-08-29T11:59:46.781Z,0.73
2017-08-29T12:00:40.863Z,0.73
2017-08-29T12:01:35.012Z,0.71
2017-08-29T12:02:29.951Z,0.70
2017-08-29T12:03:30.055Z,0.72
2017-08-29T12:04:24.205Z,0.71
2017-08-29T12:05:13.197Z,0.45
2017-08-29T12:06:02.396Z,0.71
2017-08-29T12:06:50.448Z,0.68
2017-08-29T12:07:39.456Z,0.65
2017-08-29T12:08:28.635Z,0.65
2017-08-29T12:09:16.622Z,0.66
2017-08-29T12:10:10.711Z,0.66
2017-08-29T12:11:05.820Z,0.65
2017-08-29T12:12:05.935Z,0.61
2017-08-29T12:12:59.963Z,0.62
2017-08-29T12:13:49.108Z,0.63
2017-08-29T12:14:37.191Z,0.63
2017-08-29T12:15:31.232Z,0.63
2017-08-29T12:16:26.371Z,0.66
2017-08-29T12:17:15.418Z,0.67
2017-08-29T12:18:10.446Z,0.69
2017-08-29T12:19:11.569Z,0.69
2017-08-29T12:20:05.624Z,0.67
2017-08-29T12:21:00.927Z,0.67